Time;durP1;ratioP1;P1;durP2;ratioP2;P2;SDS_P1;SDS_P2;PMS_P1;PMS_P2;Temp;Humidity;BMP_temperature;BMP_pressure;BME280_temperature;BME280_humidity;BME280_pressure;Samples;Min_cycle;Max_cycle;Signal;HPM_P1;HPM_P2
2022/06/18 03:02:00;;;;;;;0.50;0.50;;;28.70;38.10;;;;;;5214602;23;44946;-64
2022/06/18 03:04:26;;;;;;;0.65;0.65;;;28.60;37.80;;;;;;4950836;28;45195;-62
2022/06/18 03:06:52;;;;;;;0.70;0.60;;;28.60;37.90;;;;;;4916793;28;45157;-62
2022/06/18 03:09:17;;;;;;;0.70;0.70;;;28.60;37.90;;;;;;4944832;28;45467;-63
2022/06/18 03:14:27;;;;;;;0.63;0.63;;;28.60;38.00;;;;;;4926096;28;45082;-63
2022/06/18 03:16:53;;;;;;;0.45;0.45;;;28.60;38.00;;;;;;4910020;28;47731;-63
2022/06/18 03:19:40;;;;;;;0.75;0.75;;;28.60;38.00;;;;;;4929337;28;45241;-64
2022/06/18 03:22:12;;;;;;;0.60;0.57;;;28.60;38.30;;;;;;4918539;28;45025;-62
2022/06/18 03:24:40;;;;;;;0.65;0.63;;;28.60;38.10;;;;;;4923265;28;45534;-62
2022/06/18 03:27:07;;;;;;;0.82;0.60;;;28.60;38.10;;;;;;4910117;28;45240;-61
2022/06/18 03:29:33;;;;;;;0.63;0.60;;;28.60;38.10;;;;;;4923836;28;45175;-62
2022/06/18 03:32:00;;;;;;;0.50;0.50;;;28.60;38.10;;;;;;4913171;28;44793;-64
2022/06/18 03:34:26;;;;;;;0.80;0.80;;;28.60;38.10;;;;;;4922394;28;44920;-62
2022/06/18 03:36:52;;;;;;;0.68;0.60;;;28.60;38.10;;;;;;4927715;28;44924;-63
2022/06/18 03:39:18;;;;;;;0.70;0.70;;;28.60;38.10;;;;;;4927467;28;46099;-64
2022/06/18 03:41:44;;;;;;;0.63;0.63;;;28.60;38.20;;;;;;4928036;28;45208;-62
2022/06/18 03:44:09;;;;;;;0.60;0.60;;;28.60;38.30;;;;;;4929010;28;44919;-64
2022/06/18 03:46:36;;;;;;;0.82;0.70;;;28.60;38.30;;;;;;4927685;28;45285;-64
2022/06/18 03:49:04;;;;;;;0.93;0.77;;;28.60;38.20;;;;;;4896662;28;45726;-65
2022/06/18 03:51:30;;;;;;;0.60;0.55;;;28.60;38.30;;;;;;4923177;28;45153;-63
2022/06/18 03:53:56;;;;;;;0.88;0.70;;;28.60;38.90;;;;;;4882690;28;45125;-62
2022/06/18 03:56:24;;;;;;;0.60;0.60;;;28.60;38.30;;;;;;4925341;28;45120;-63
2022/06/18 03:58:50;;;;;;;0.57;0.55;;;28.60;38.30;;;;;;4912260;28;46436;-63
2022/06/18 04:01:18;;;;;;;0.63;0.63;;;28.60;38.40;;;;;;4929751;28;45118;-63
2022/06/18 04:03:44;;;;;;;0.50;0.50;;;28.60;38.40;;;;;;4931853;28;45939;-64
2022/06/18 04:06:10;;;;;;;0.60;0.60;;;28.60;38.40;;;;;;4935689;28;44849;-64
2022/06/18 04:08:36;;;;;;;0.60;0.60;;;28.60;38.40;;;;;;4910797;28;46768;-63
2022/06/18 04:11:02;;;;;;;0.77;0.77;;;28.60;38.40;;;;;;4933584;28;45035;-63
2022/06/18 04:13:28;;;;;;;0.45;0.43;;;28.60;38.40;;;;;;4933169;28;45457;-63
2022/06/18 04:15:55;;;;;;;0.60;0.60;;;28.60;38.50;;;;;;4932571;28;45075;-63
2022/06/18 04:18:20;;;;;;;0.47;0.47;;;28.50;38.40;;;;;;4935211;28;45973;-63
2022/06/18 04:20:46;;;;;;;1.02;0.80;;;28.60;38.50;;;;;;4932133;28;45253;-63
2022/06/18 04:23:15;;;;;;;0.85;0.75;;;28.60;38.60;;;;;;4941480;28;45011;-63
2022/06/18 04:25:41;;;;;;;0.60;0.60;;;28.50;38.50;;;;;;4937986;28;45124;-63
2022/06/18 04:28:08;;;;;;;2.15;0.80;;;28.50;38.50;;;;;;4916155;28;45339;-63
2022/06/18 04:30:34;;;;;;;0.52;0.50;;;28.60;38.60;;;;;;4918316;28;45062;-63
2022/06/18 04:33:00;;;;;;;1.55;0.73;;;28.50;38.50;;;;;;4939878;28;45178;-63
2022/06/18 04:35:26;;;;;;;0.80;0.80;;;28.50;38.50;;;;;;4921947;28;45141;-62
2022/06/18 04:37:52;;;;;;;0.63;0.63;;;28.50;38.50;;;;;;4936685;28;45433;-62
2022/06/18 04:40:19;;;;;;;0.60;0.60;;;28.50;38.60;;;;;;4920199;28;44909;-62
2022/06/18 04:42:45;;;;;;;1.10;0.75;;;28.60;38.70;;;;;;4917834;28;45310;-62
2022/06/18 04:45:11;;;;;;;0.63;0.60;;;28.60;38.70;;;;;;4882727;28;45008;-62
2022/06/18 04:47:40;;;;;;;0.47;0.47;;;28.60;38.70;;;;;;4926742;28;46005;-62
2022/06/18 04:50:07;;;;;;;0.77;0.47;;;28.60;38.70;;;;;;4925342;28;44832;-62
2022/06/18 04:52:33;;;;;;;0.80;0.60;;;28.60;38.70;;;;;;4893862;28;45655;-62
2022/06/18 04:54:59;;;;;;;0.80;0.80;;;28.50;38.60;;;;;;4924983;28;44991;-63
2022/06/18 04:57:24;;;;;;;0.77;0.70;;;28.50;38.70;;;;;;4925660;28;46059;-62
2022/06/18 04:59:50;;;;;;;1.08;0.70;;;28.60;38.70;;;;;;4926484;28;45065;-64
2022/06/18 05:02:26;;;;;;;0.63;0.63;;;28.50;38.60;;;;;;4924615;28;45124;-64
2022/06/18 05:04:53;;;;;;;0.75;0.75;;;28.50;38.80;;;;;;4906435;28;44802;-62
2022/06/18 05:07:19;;;;;;;0.60;0.60;;;28.50;38.60;;;;;;4922544;28;45052;-64
2022/06/18 05:09:45;;;;;;;1.10;1.00;;;28.60;38.70;;;;;;4927294;28;45019;-63
2022/06/18 05:12:12;;;;;;;0.80;0.70;;;28.50;38.70;;;;;;4907503;28;44880;-62
2022/06/18 05:14:38;;;;;;;0.70;0.70;;;28.50;38.70;;;;;;4926198;28;45170;-60
2022/06/18 05:17:05;;;;;;;0.52;0.52;;;28.50;38.80;;;;;;4926733;28;46629;-60
2022/06/18 05:19:33;;;;;;;0.57;0.57;;;28.50;38.80;;;;;;4907254;28;44873;-62
2022/06/18 05:21:58;;;;;;;0.63;0.63;;;28.60;38.80;;;;;;4891852;28;44968;-64
2022/06/18 05:24:25;;;;;;;0.70;0.68;;;28.60;38.70;;;;;;4925109;28;45614;-63
2022/06/18 05:26:52;;;;;;;0.70;0.68;;;28.60;38.60;;;;;;4906493;28;46357;-63
2022/06/18 05:29:18;;;;;;;0.60;0.57;;;28.60;38.50;;;;;;4908911;28;45719;-62
2022/06/18 05:31:43;;;;;;;0.77;0.77;;;28.70;38.50;;;;;;4892615;28;45096;-62
2022/06/18 05:34:09;;;;;;;1.20;0.63;;;28.70;38.40;;;;;;4924910;28;45291;-64
2022/06/18 05:36:36;;;;;;;0.70;0.70;;;28.80;38.40;;;;;;4926014;28;46138;-63
2022/06/18 05:39:01;;;;;;;0.60;0.60;;;28.80;38.30;;;;;;4925792;28;44902;-62
2022/06/18 05:41:27;;;;;;;0.75;0.75;;;28.80;38.30;;;;;;4925570;28;45707;-62
2022/06/18 05:43:53;;;;;;;0.77;0.70;;;28.80;38.30;;;;;;4908872;28;45733;-63
2022/06/18 05:46:19;;;;;;;0.75;0.75;;;28.80;38.30;;;;;;4925417;28;45366;-62
2022/06/18 05:48:44;;;;;;;1.25;0.68;;;28.80;38.30;;;;;;4908194;28;45039;-62
2022/06/18 05:51:10;;;;;;;0.88;0.60;;;28.80;38.40;;;;;;4906087;28;45602;-61
2022/06/18 05:53:36;;;;;;;1.10;0.80;;;28.90;38.40;;;;;;4908028;28;45777;-63
2022/06/18 05:56:02;;;;;;;0.85;0.70;;;28.80;38.40;;;;;;4924550;28;45983;-62
2022/06/18 05:58:28;;;;;;;0.70;0.70;;;28.80;38.30;;;;;;4908502;28;45747;-63
2022/06/18 06:00:54;;;;;;;0.70;0.70;;;28.80;38.30;;;;;;4905914;28;44900;-62
2022/06/18 06:03:20;;;;;;;1.10;1.00;;;28.90;38.40;;;;;;4923628;28;44982;-62
2022/06/18 06:05:46;;;;;;;0.70;0.70;;;28.80;38.30;;;;;;4896379;28;45540;-64
2022/06/18 06:08:31;;;;;;;1.25;0.82;;;28.90;38.30;;;;;;4896306;28;45278;-64
2022/06/18 06:11:29;;;;;;;0.60;0.60;;;28.90;38.30;;;;;;4902473;28;45111;-63
2022/06/18 06:14:17;;;;;;;0.65;0.65;;;28.90;38.30;;;;;;4909602;28;45224;-62
2022/06/18 06:17:03;;;;;;;0.80;0.73;;;28.80;38.20;;;;;;4918372;28;45132;-64
2022/06/18 06:19:48;;;;;;;3.20;0.93;;;28.90;38.30;;;;;;4891746;28;45093;-62
2022/06/18 06:22:35;;;;;;;0.80;0.80;;;28.90;38.20;;;;;;4892350;28;45405;-62
2022/06/18 06:25:01;;;;;;;0.90;0.77;;;28.90;38.20;;;;;;4917942;28;45583;-64
2022/06/18 06:27:26;;;;;;;0.75;0.75;;;28.90;38.10;;;;;;4919227;28;46226;-62
2022/06/18 06:29:52;;;;;;;0.77;0.77;;;28.90;38.10;;;;;;4918936;28;45756;-63
2022/06/18 06:32:18;;;;;;;1.10;0.90;;;29.00;38.10;;;;;;4919270;28;45616;-63
2022/06/18 06:34:43;;;;;;;0.80;0.80;;;29.00;38.10;;;;;;4917110;28;45388;-62
2022/06/18 06:37:10;;;;;;;0.68;0.68;;;29.00;38.00;;;;;;4921020;28;44955;-64
2022/06/18 06:39:36;;;;;;;0.60;0.60;;;29.10;38.00;;;;;;4883942;28;45037;-61
2022/06/18 06:42:02;;;;;;;0.63;0.63;;;29.10;37.90;;;;;;4915718;28;45087;-62
2022/06/18 06:44:27;;;;;;;0.80;0.80;;;29.20;37.90;;;;;;4902798;28;45789;-63
2022/06/18 06:46:53;;;;;;;0.82;0.82;;;29.20;37.80;;;;;;4917926;28;45125;-63
2022/06/18 06:49:19;;;;;;;0.70;0.70;;;29.20;37.70;;;;;;4918353;28;45146;-63
2022/06/18 06:51:44;;;;;;;0.82;0.82;;;29.30;37.70;;;;;;4884545;28;45096;-63
2022/06/18 06:54:10;;;;;;;0.70;0.70;;;29.30;37.70;;;;;;4903517;28;45208;-64
2022/06/18 06:59:20;;;;;;;0.75;0.75;;;29.40;37.70;;;;;;4921129;28;45507;-63
2022/06/18 07:01:45;;;;;;;0.63;0.63;;;29.40;37.60;;;;;;4921168;28;45823;-62
2022/06/18 07:04:11;;;;;;;1.05;0.95;;;29.40;37.70;;;;;;4920593;28;45533;-63
2022/06/18 07:06:37;;;;;;;0.68;0.68;;;29.40;37.70;;;;;;4906757;28;45916;-63
2022/06/18 07:09:06;;;;;;;0.63;0.63;;;29.40;37.70;;;;;;4926034;28;44755;-64
2022/06/18 07:11:33;;;;;;;0.70;0.70;;;29.40;37.70;;;;;;4906255;28;45186;-62
2022/06/18 07:13:59;;;;;;;1.27;0.88;;;29.40;37.70;;;;;;4909487;28;45766;-63
2022/06/18 07:16:25;;;;;;;0.90;0.75;;;29.40;37.70;;;;;;4923811;28;46303;-62
2022/06/18 07:18:52;;;;;;;0.70;0.70;;;29.40;37.70;;;;;;4909462;28;45385;-62
2022/06/18 07:21:19;;;;;;;0.80;0.68;;;29.40;37.70;;;;;;4925696;28;44994;-62
2022/06/18 07:23:45;;;;;;;0.93;0.70;;;29.40;37.70;;;;;;4925679;28;44945;-62
2022/06/18 07:26:13;;;;;;;0.80;0.80;;;29.40;37.70;;;;;;4925654;28;45839;-62
2022/06/18 07:28:38;;;;;;;0.75;0.75;;;29.40;37.70;;;;;;4925133;28;45453;-61
2022/06/18 07:31:04;;;;;;;0.75;0.75;;;29.40;37.70;;;;;;4923435;28;45579;-63
2022/06/18 07:33:30;;;;;;;0.85;0.80;;;29.40;37.70;;;;;;4880931;28;45128;-64
2022/06/18 07:35:55;;;;;;;1.20;1.00;;;29.40;37.70;;;;;;4884736;28;45362;-61
2022/06/18 07:38:21;;;;;;;1.00;0.90;;;29.40;37.70;;;;;;4918141;28;45732;-65
2022/06/18 07:40:48;;;;;;;0.50;0.50;;;29.40;37.60;;;;;;4919989;28;45215;-63
2022/06/18 07:43:28;;;;;;;2.75;0.70;;;29.50;37.70;;;;;;4902526;28;45808;-65
2022/06/18 07:45:54;;;;;;;0.65;0.65;;;29.50;37.70;;;;;;4903754;28;46017;-62
2022/06/18 07:48:19;;;;;;;0.60;0.60;;;29.50;37.60;;;;;;4921711;28;45580;-63
2022/06/18 07:50:46;;;;;;;0.80;0.80;;;29.50;37.60;;;;;;4919768;28;45054;-62
2022/06/18 07:53:19;;;;;;;0.70;0.70;;;29.50;37.60;;;;;;4904344;28;45069;-62
2022/06/18 07:55:45;;;;;;;0.73;0.73;;;29.50;37.60;;;;;;4903301;28;45666;-65
2022/06/18 07:58:10;;;;;;;0.70;0.70;;;29.50;37.60;;;;;;4924636;28;45156;-64
2022/06/18 08:00:39;;;;;;;0.82;0.82;;;29.50;37.50;;;;;;4903429;28;45358;-63
2022/06/18 08:03:06;;;;;;;1.58;0.85;;;29.50;37.50;;;;;;4909049;28;45912;-62
2022/06/18 08:05:31;;;;;;;0.80;0.80;;;29.60;37.60;;;;;;4926236;28;45746;-62
2022/06/18 08:07:57;;;;;;;0.65;0.63;;;29.60;37.50;;;;;;4908972;28;45625;-63
2022/06/18 08:10:22;;;;;;;0.93;0.70;;;29.60;37.50;;;;;;4908539;28;44932;-62
2022/06/18 08:12:48;;;;;;;0.60;0.60;;;29.70;37.50;;;;;;4926576;28;45530;-62
2022/06/18 08:15:14;;;;;;;0.77;0.77;;;29.70;37.50;;;;;;4909021;28;45713;-63
2022/06/18 08:17:39;;;;;;;0.65;0.65;;;29.70;37.50;;;;;;4926039;28;45607;-64
2022/06/18 08:20:06;;;;;;;0.70;0.70;;;29.70;37.50;;;;;;4923959;28;47352;-62
2022/06/18 08:22:31;;;;;;;0.80;0.80;;;29.70;38.10;;;;;;4924900;28;44996;-62
2022/06/18 08:24:57;;;;;;;1.02;0.90;;;29.70;37.50;;;;;;4908541;28;45383;-61
2022/06/18 08:27:22;;;;;;;2.58;0.73;;;29.70;37.40;;;;;;4908105;28;45585;-62
2022/06/18 08:29:48;;;;;;;2.35;0.85;;;29.80;37.40;;;;;;4908682;28;47991;-62
2022/06/18 08:32:14;;;;;;;1.08;1.00;;;29.80;37.40;;;;;;4890606;28;47164;-63
2022/06/18 08:34:39;;;;;;;0.93;0.82;;;29.80;37.40;;;;;;4926940;28;45821;-63
2022/06/18 08:37:05;;;;;;;2.78;0.60;;;29.80;37.80;;;;;;4928008;28;45490;-60
2022/06/18 08:39:31;;;;;;;0.80;0.80;;;29.90;37.40;;;;;;4925662;28;44718;-63
2022/06/18 08:42:15;;;;;;;1.00;0.90;;;29.90;37.40;;;;;;4907133;28;45510;-64
2022/06/18 08:45:03;;;;;;;1.00;0.85;;;29.90;37.40;;;;;;4925907;28;46548;-60
2022/06/18 08:47:52;;;;;;;0.70;0.70;;;29.90;37.30;;;;;;4925426;28;44971;-60
2022/06/18 08:50:29;;;;;;;0.80;0.70;;;29.90;37.30;;;;;;4909156;28;45618;-63
2022/06/18 08:53:07;;;;;;;0.80;0.80;;;29.90;37.30;;;;;;4927593;28;44663;-64
2022/06/18 08:56:02;;;;;;;1.00;0.90;;;29.90;37.20;;;;;;4904952;28;47143;-61
2022/06/18 08:58:39;;;;;;;0.82;0.82;;;29.90;37.20;;;;;;4927981;28;45733;-62
2022/06/18 09:01:16;;;;;;;0.85;0.80;;;29.90;37.20;;;;;;4909365;28;45777;-62
2022/06/18 09:04:08;;;;;;;0.80;0.80;;;30.00;37.30;;;;;;4909989;28;44805;-62
2022/06/18 09:06:58;;;;;;;0.77;0.75;;;30.00;37.20;;;;;;4904280;28;45995;-63
2022/06/18 09:09:35;;;;;;;0.73;0.73;;;30.00;37.20;;;;;;4911214;28;45546;-60
2022/06/18 09:12:16;;;;;;;0.88;0.80;;;30.00;37.20;;;;;;4891405;28;45704;-61
2022/06/18 09:14:52;;;;;;;1.05;0.88;;;30.00;37.20;;;;;;4908444;28;45058;-61
2022/06/18 09:17:37;;;;;;;0.80;0.77;;;30.00;37.10;;;;;;4908221;28;45574;-61
2022/06/18 09:20:09;;;;;;;0.98;0.77;;;30.00;37.10;;;;;;4925772;28;45737;-63
2022/06/18 09:22:38;;;;;;;1.13;1.00;;;30.00;37.10;;;;;;4926628;28;44936;-62
2022/06/18 09:25:08;;;;;;;1.38;0.90;;;30.00;37.10;;;;;;4877902;28;45019;-63
2022/06/18 09:28:03;;;;;;;1.00;0.90;;;30.10;37.10;;;;;;4892156;28;47028;-62
2022/06/18 09:30:43;;;;;;;1.70;1.02;;;30.10;37.10;;;;;;4914213;28;45889;-62
2022/06/18 09:33:13;;;;;;;0.80;0.80;;;30.10;37.00;;;;;;4910522;28;45526;-62
2022/06/18 09:35:50;;;;;;;0.90;0.73;;;30.10;36.90;;;;;;4892845;28;45754;-62
2022/06/18 09:38:18;;;;;;;0.70;0.63;;;30.20;36.90;;;;;;4892706;28;44989;-62
2022/06/18 09:40:50;;;;;;;1.08;1.00;;;30.20;36.90;;;;;;4926463;28;44979;-62
2022/06/18 09:43:37;;;;;;;0.70;0.70;;;30.20;37.00;;;;;;4910857;28;45599;-62
2022/06/18 09:46:07;;;;;;;1.10;0.73;;;30.20;36.90;;;;;;4910033;28;45073;-63
2022/06/18 09:48:33;;;;;;;0.77;0.77;;;30.20;36.90;;;;;;4891794;28;49828;-63
2022/06/18 09:51:04;;;;;;;0.85;0.85;;;30.20;36.90;;;;;;4909464;28;45676;-60
2022/06/18 09:53:37;;;;;;;1.00;0.90;;;30.20;36.90;;;;;;4894544;28;44721;-62
2022/06/18 09:56:24;;;;;;;0.95;0.88;;;30.20;36.90;;;;;;4909187;28;44852;-64
2022/06/18 09:58:58;;;;;;;0.80;0.80;;;30.20;36.80;;;;;;4908999;28;45614;-62
2022/06/18 10:01:51;;;;;;;1.20;1.08;;;30.20;36.80;;;;;;4906104;28;44722;-62
2022/06/18 10:07:17;;;;;;;1.15;0.90;;;30.30;37.50;;;;;;4911955;28;44973;-64
2022/06/18 10:09:49;;;;;;;1.30;0.80;;;30.20;36.80;;;;;;4907209;28;46006;-63
2022/06/18 10:12:24;;;;;;;0.63;0.63;;;30.30;36.80;;;;;;4908099;28;45031;-63
2022/06/18 10:15:00;;;;;;;1.70;1.00;;;30.30;36.80;;;;;;4925469;28;44849;-63
2022/06/18 10:17:29;;;;;;;0.80;0.80;;;30.30;36.80;;;;;;4909050;28;45788;-63
2022/06/18 10:19:55;;;;;;;1.70;0.90;;;30.30;36.70;;;;;;4905131;28;45878;-62
2022/06/18 10:22:24;;;;;;;1.10;1.00;;;30.30;36.70;;;;;;4901057;28;45580;-64
2022/06/18 10:25:04;;;;;;;0.98;0.88;;;30.30;36.70;;;;;;4908081;28;45057;-63
2022/06/18 10:27:38;;;;;;;1.00;1.00;;;30.40;36.70;;;;;;4921124;28;45704;-63
2022/06/18 10:30:10;;;;;;;0.80;0.75;;;30.40;36.80;;;;;;4923385;28;44846;-62
2022/06/18 10:33:07;;;;;;;0.77;0.77;;;30.40;36.80;;;;;;4889534;28;45560;-62
2022/06/18 10:36:02;;;;;;;0.80;0.80;;;30.40;36.70;;;;;;4923638;28;45793;-62
2022/06/18 10:38:42;;;;;;;0.80;0.80;;;30.40;36.60;;;;;;4910282;28;45375;-61
2022/06/18 10:41:28;;;;;;;0.65;0.65;;;30.40;36.60;;;;;;4907716;28;46874;-62
2022/06/18 10:44:31;;;;;;;1.10;0.90;;;30.50;36.70;;;;;;4912502;28;44991;-61
2022/06/18 10:47:02;;;;;;;1.38;1.00;;;30.40;36.50;;;;;;4903788;28;45651;-63
2022/06/18 10:49:28;;;;;;;0.88;0.88;;;30.40;36.60;;;;;;4892124;28;45935;-62
2022/06/18 10:51:53;;;;;;;1.08;0.98;;;30.40;36.60;;;;;;4913189;28;46185;-63
2022/06/18 10:54:30;;;;;;;0.80;0.80;;;30.40;36.60;;;;;;4903585;28;45019;-63
2022/06/18 10:56:57;;;;;;;0.88;0.88;;;30.50;36.80;;;;;;4918807;28;45765;-63
2022/06/18 10:59:32;;;;;;;3.15;1.10;;;30.50;36.60;;;;;;4901813;28;45151;-63
2022/06/18 11:02:32;;;;;;;0.70;0.70;;;30.50;36.50;;;;;;4901668;28;46029;-63
2022/06/18 11:05:00;;;;;;;0.75;0.75;;;30.50;36.50;;;;;;4884753;28;45727;-65
2022/06/18 11:07:27;;;;;;;0.98;0.93;;;30.50;36.60;;;;;;4904721;28;45757;-62
2022/06/18 11:10:04;;;;;;;0.85;0.82;;;30.50;36.50;;;;;;4885190;28;45161;-61
2022/06/18 11:12:38;;;;;;;1.75;1.20;;;30.50;36.40;;;;;;4901856;28;45524;-63
2022/06/18 11:15:07;;;;;;;1.35;0.93;;;30.60;36.50;;;;;;4919105;28;45268;-64
2022/06/18 11:17:36;;;;;;;1.15;0.93;;;30.50;36.50;;;;;;4898375;28;45367;-61
2022/06/18 11:20:23;;;;;;;0.80;0.80;;;30.50;36.50;;;;;;4919280;28;45967;-64
2022/06/18 11:23:13;;;;;;;1.00;1.00;;;30.50;36.50;;;;;;4919923;28;46152;-64
2022/06/18 11:25:39;;;;;;;1.83;0.80;;;30.60;36.50;;;;;;4902250;28;45109;-64
2022/06/18 11:28:15;;;;;;;1.05;0.82;;;30.60;36.60;;;;;;4903618;28;45751;-64
2022/06/18 11:30:43;;;;;;;1.35;0.88;;;30.60;36.60;;;;;;4919509;28;46128;-64
2022/06/18 11:33:21;;;;;;;1.10;1.00;;;30.60;36.60;;;;;;4901472;28;46272;-65
2022/06/18 11:35:50;;;;;;;1.00;0.95;;;30.60;36.50;;;;;;4899862;28;45764;-63
2022/06/18 11:38:30;;;;;;;1.90;1.10;;;30.60;36.50;;;;;;4898526;28;44843;-63
2022/06/18 11:40:58;;;;;;;0.90;0.90;;;30.60;36.30;;;;;;4885299;28;45058;-63
2022/06/18 11:43:34;;;;;;;2.13;1.00;;;30.60;36.40;;;;;;4886892;28;45135;-63
2022/06/18 11:46:06;;;;;;;1.05;0.95;;;30.70;36.40;;;;;;4887633;28;44940;-63
2022/06/18 11:48:48;;;;;;;1.20;1.10;;;30.60;36.30;;;;;;4884995;28;45263;-63
2022/06/18 11:51:13;;;;;;;0.98;0.98;;;30.70;36.40;;;;;;4887658;28;45235;-63
2022/06/18 11:53:45;;;;;;;1.10;1.00;;;30.60;36.40;;;;;;4921413;28;45927;-63
2022/06/18 11:56:40;;;;;;;0.93;0.93;;;30.60;36.40;;;;;;4904578;28;45022;-63
2022/06/18 11:59:16;;;;;;;1.00;0.80;;;30.60;36.30;;;;;;4905045;28;45602;-67
2022/06/18 12:01:56;;;;;;;1.30;0.98;;;30.70;36.40;;;;;;4902027;28;45841;-61
2022/06/18 12:04:30;;;;;;;0.80;0.80;;;30.70;36.40;;;;;;4893967;28;45864;-61
2022/06/18 12:07:05;;;;;;;1.70;1.30;;;30.70;36.40;;;;;;4887197;28;45320;-63
2022/06/18 12:09:31;;;;;;;1.33;1.20;;;30.70;36.40;;;;;;4903626;28;45981;-63
2022/06/18 12:12:21;;;;;;;2.08;1.00;;;30.70;36.40;;;;;;4887203;28;45601;-62
2022/06/18 12:15:25;;;;;;;1.02;0.93;;;30.70;36.40;;;;;;4904281;28;46014;-61
2022/06/18 12:18:05;;;;;;;1.05;0.95;;;30.70;36.20;;;;;;4919936;28;45191;-63
2022/06/18 12:20:47;;;;;;;1.10;1.00;;;30.70;36.30;;;;;;4900435;28;45311;-63
2022/06/18 12:23:40;;;;;;;1.13;1.02;;;30.70;36.30;;;;;;4901696;28;44794;-63
2022/06/18 12:26:26;;;;;;;1.00;0.98;;;30.80;37.00;;;;;;4887350;28;46019;-63
2022/06/18 12:28:52;;;;;;;1.02;1.00;;;30.80;36.30;;;;;;4917672;28;45425;-61
2022/06/18 12:31:30;;;;;;;1.30;1.00;;;30.80;36.30;;;;;;4919639;28;45821;-64
2022/06/18 12:34:10;;;;;;;1.20;1.13;;;30.80;36.20;;;;;;4901884;28;45039;-64
2022/06/18 12:36:57;;;;;;;1.30;1.00;;;30.80;36.20;;;;;;4902759;28;45814;-60
2022/06/18 12:39:35;;;;;;;1.75;0.98;;;30.80;36.20;;;;;;4898637;28;45058;-61
2022/06/18 12:42:07;;;;;;;1.00;1.00;;;30.80;36.20;;;;;;4919022;28;45097;-63
2022/06/18 12:44:40;;;;;;;1.25;0.88;;;30.90;36.20;;;;;;4903085;28;45469;-62
2022/06/18 12:47:27;;;;;;;1.17;0.98;;;30.80;36.20;;;;;;4900729;28;46017;-62
2022/06/18 12:50:29;;;;;;;0.80;0.80;;;30.90;36.10;;;;;;4882876;28;45201;-61
2022/06/18 12:53:08;;;;;;;1.60;1.10;;;30.90;36.10;;;;;;4900259;28;45533;-62
2022/06/18 12:55:42;;;;;;;1.23;1.10;;;30.90;36.10;;;;;;4871052;28;45040;-63
2022/06/18 12:58:26;;;;;;;1.05;1.05;;;30.90;36.10;;;;;;4871487;28;45713;-62
2022/06/18 13:01:17;;;;;;;1.17;1.02;;;30.90;36.10;;;;;;4898914;28;45845;-62
2022/06/18 13:03:54;;;;;;;3.17;1.17;;;31.00;36.10;;;;;;4901928;28;45353;-63
2022/06/18 13:06:38;;;;;;;1.20;1.00;;;31.00;36.10;;;;;;4903204;28;45149;-64
2022/06/18 13:09:26;;;;;;;2.42;1.23;;;31.00;36.00;;;;;;4902874;28;47208;-64
2022/06/18 13:12:02;;;;;;;1.10;0.98;;;31.00;36.00;;;;;;4920297;28;44976;-64
2022/06/18 13:14:36;;;;;;;1.30;1.15;;;31.00;36.10;;;;;;4921967;28;45641;-61
2022/06/18 13:17:06;;;;;;;2.75;1.20;;;31.00;36.00;;;;;;4921650;28;44968;-63
2022/06/18 13:19:57;;;;;;;2.53;1.20;;;31.00;36.00;;;;;;4904903;28;45058;-65
2022/06/18 13:22:23;;;;;;;1.30;0.93;;;31.00;35.90;;;;;;4880750;28;45692;-63
2022/06/18 13:28:16;;;;;;;1.50;1.40;;;31.00;36.00;;;;;;4903016;28;44720;-62
2022/06/18 13:31:07;;;;;;;3.17;1.27;;;31.10;35.90;;;;;;4893683;28;45848;-62
2022/06/18 13:33:40;;;;;;;1.95;1.17;;;31.00;35.80;;;;;;4917071;28;45136;-64
2022/06/18 13:36:09;;;;;;;;;;;31.10;36.00;;;;;;4917816;28;45023;-62
2022/06/18 13:38:50;;;;;;;1.40;1.20;;;31.10;35.90;;;;;;4921120;28;46330;-62
2022/06/18 13:41:40;;;;;;;1.27;1.02;;;31.10;35.90;;;;;;4918562;28;47928;-63
2022/06/18 13:44:27;;;;;;;2.78;1.30;;;31.10;35.70;;;;;;4920402;28;45519;-63
2022/06/18 13:47:24;;;;;;;2.08;1.48;;;31.10;35.80;;;;;;4919951;28;45504;-63
2022/06/18 13:49:58;;;;;;;1.90;1.42;;;31.20;35.70;;;;;;4922295;28;45699;-62
2022/06/18 13:52:23;;;;;;;2.22;1.48;;;31.20;35.70;;;;;;4901102;28;46031;-62
2022/06/18 13:54:50;;;;;;;1.40;1.30;;;31.20;35.80;;;;;;4902486;28;45018;-64
2022/06/18 13:57:18;;;;;;;1.15;1.15;;;31.20;35.70;;;;;;4907647;28;45666;-63
2022/06/18 14:00:00;;;;;;;1.63;1.35;;;31.20;35.70;;;;;;4903145;28;45316;-63
2022/06/18 14:02:35;;;;;;;1.60;1.40;;;31.20;35.60;;;;;;4915269;28;46091;-63
2022/06/18 14:05:05;;;;;;;2.10;1.30;;;31.20;35.60;;;;;;4900587;28;45287;-64
2022/06/18 14:07:31;;;;;;;1.90;1.60;;;31.20;35.70;;;;;;4918822;28;45635;-64
2022/06/18 14:09:57;;;;;;;4.25;1.45;;;31.20;35.60;;;;;;4902899;28;45179;-63
2022/06/18 14:12:32;;;;;;;1.83;1.40;;;31.20;35.60;;;;;;4900205;28;46104;-63
2022/06/18 14:15:17;;;;;;;1.52;1.40;;;31.30;35.70;;;;;;4901589;28;45238;-63
2022/06/18 14:17:45;;;;;;;2.35;1.42;;;31.20;35.50;;;;;;4885100;28;45854;-63
2022/06/18 14:20:26;;;;;;;1.35;1.25;;;31.30;35.60;;;;;;4901137;28;45217;-64
2022/06/18 14:23:07;;;;;;;3.17;1.40;;;31.30;35.50;;;;;;4883410;28;45923;-62
2022/06/18 14:25:52;;;;;;;2.95;1.40;;;31.30;35.60;;;;;;4890495;28;45433;-64
2022/06/18 14:28:22;;;;;;;2.65;1.58;;;31.20;35.40;;;;;;4901118;28;45346;-63
2022/06/18 14:31:03;;;;;;;1.75;1.30;;;31.30;35.60;;;;;;4895992;28;45393;-64
2022/06/18 14:33:35;;;;;;;1.65;1.42;;;31.30;35.60;;;;;;4909030;28;45582;-64
2022/06/18 14:36:17;;;;;;;2.75;1.17;;;31.30;35.60;;;;;;4912942;28;45338;-63
2022/06/18 14:38:44;;;;;;;1.40;1.30;;;31.30;35.60;;;;;;4916939;28;45361;-63
2022/06/18 14:43:54;;;;;;;1.33;1.10;;;31.30;35.60;;;;;;4894672;28;45252;-63
2022/06/18 14:46:26;;;;;;;1.23;1.13;;;31.30;35.60;;;;;;4890140;28;45976;-64
2022/06/18 14:49:15;;;;;;;2.00;1.42;;;31.30;35.60;;;;;;4890084;28;46625;-65
2022/06/18 14:52:06;;;;;;;2.72;1.30;;;31.40;35.60;;;;;;4919663;28;45539;-64
2022/06/18 14:55:02;;;;;;;4.55;1.85;;;31.30;35.50;;;;;;4893425;28;45816;-63
2022/06/18 14:57:58;;;;;;;2.45;1.27;;;31.30;35.50;;;;;;4905475;28;45244;-63
2022/06/18 15:00:24;;;;;;;3.80;1.40;;;31.40;35.60;;;;;;4898377;28;45135;-63
2022/06/18 15:03:03;;;;;;;2.95;1.50;;;31.40;35.70;;;;;;4878021;28;1161141;-63
2022/06/18 15:05:30;;;;;;;2.80;1.35;;;31.40;35.60;;;;;;4913918;28;45286;-63
2022/06/18 15:08:06;;;;;;;4.05;1.75;;;31.40;35.70;;;;;;4912016;28;45369;-64
2022/06/18 15:10:31;;;;;;;2.58;1.30;;;31.40;35.70;;;;;;4900740;28;45826;-63
2022/06/18 15:12:59;;;;;;;4.72;1.50;;;31.40;35.70;;;;;;4925329;28;44685;-63
2022/06/18 15:16:26;;;;;;;3.17;1.67;;;31.40;35.70;;;;;;4918811;28;45802;-63
2022/06/18 15:18:35;;;;;;;2.20;1.40;;;31.30;35.60;;;;;;4897559;28;45363;-61
2022/06/18 15:21:23;;;;;;;2.15;1.20;;;31.30;35.60;;;;;;4891860;28;45623;-63
2022/06/18 15:26:31;;;;;;;2.75;1.50;;;31.40;35.70;;;;;;4907176;28;45652;-63
2022/06/18 15:29:03;;;;;;;4.82;1.80;;;31.40;35.70;;;;;;4923150;28;45156;-62
2022/06/18 15:31:33;;;;;;;3.03;1.90;;;31.40;35.60;;;;;;4906496;28;45228;-64
2022/06/18 15:34:14;;;;;;;2.22;1.52;;;31.40;35.60;;;;;;4896349;28;45682;-61
2022/06/18 15:36:40;;;;;;;2.55;1.60;;;31.40;35.50;;;;;;4894793;28;45275;-63
2022/06/18 15:39:14;;;;;;;2.95;1.40;;;31.40;35.60;;;;;;4923334;28;45789;-61
2022/06/18 15:41:42;;;;;;;3.53;1.50;;;31.40;35.60;;;;;;4927086;28;46041;-62
2022/06/18 15:44:34;;;;;;;2.70;1.50;;;31.40;35.60;;;;;;4886154;28;45520;-64
2022/06/18 15:47:03;;;;;;;2.05;1.55;;;31.40;35.50;;;;;;4889820;28;45632;-62
2022/06/18 15:49:33;;;;;;;1.30;1.15;;;31.40;35.60;;;;;;4877725;28;45745;-62
2022/06/18 15:52:00;;;;;;;2.15;1.60;;;31.40;35.60;;;;;;4907259;28;46302;-62
2022/06/18 15:54:39;;;;;;;2.97;1.50;;;31.40;35.60;;;;;;4905480;28;44975;-58
2022/06/18 15:57:16;;;;;;;3.05;1.30;;;31.40;35.60;;;;;;4907987;28;44903;-61
2022/06/18 15:59:42;;;;;;;2.08;1.40;;;31.40;35.60;;;;;;4908771;28;45484;-63
2022/06/18 16:02:17;;;;;;;1.63;1.15;;;31.40;35.60;;;;;;4891994;28;45952;-61
2022/06/18 16:04:43;;;;;;;4.43;2.10;;;31.40;35.60;;;;;;4921776;28;45289;-62
2022/06/18 16:07:09;;;;;;;3.20;2.00;;;31.40;35.60;;;;;;4908525;28;45959;-61
2022/06/18 16:09:48;;;;;;;3.10;1.50;;;31.40;35.70;;;;;;4906381;28;45084;-62
2022/06/18 16:12:20;;;;;;;2.83;1.25;;;31.40;35.70;;;;;;4910896;28;45275;-61
2022/06/18 16:14:46;;;;;;;5.35;1.65;;;31.40;35.70;;;;;;4908902;28;44719;-62
2022/06/18 16:17:11;;;;;;;3.70;2.10;;;31.40;35.70;;;;;;4924100;28;45334;-61
2022/06/18 16:19:45;;;;;;;3.72;2.00;;;31.40;35.70;;;;;;4889669;28;45077;-62
2022/06/18 16:22:34;;;;;;;2.88;1.35;;;31.50;35.80;;;;;;4906002;28;46062;-62
2022/06/18 16:25:04;;;;;;;2.83;1.67;;;31.40;35.60;;;;;;4906211;28;45073;-63
2022/06/18 16:27:35;;;;;;;2.25;1.50;;;31.40;35.60;;;;;;4898862;28;45007;-61
2022/06/18 16:30:24;;;;;;;2.20;1.50;;;31.40;35.70;;;;;;4906615;28;45381;-62
2022/06/18 16:33:17;;;;;;;2.13;1.30;;;31.40;35.60;;;;;;4925565;28;45621;-61
2022/06/18 16:36:04;;;;;;;2.40;1.60;;;31.50;35.60;;;;;;4910675;28;45386;-63